Portada
METAR-TAF:

METAR-TAF

Aeroports :

Vientiane, Laos

latitud: 17-57N, longitud: 102-34E, altitud: 171 m

Observació

L'informe es va fer fa 43 minuts, a les 10:00 UTC
Vent 6 kt del Est/Nord-Est
Temperatura 33°C
Humitat 44%
Pressió 1005 hPa
Visibilitat 10 km o més
Escasses núvols a una alçada de 1600 ft

METAR: VLVT 151000Z 06006KT 9999 FEW016 33/19 Q1005 NOSIG

Hora: 17:43 (10:43 UTC)

Pronòstic

L'informe es va fer fa 5 hores i 43 minuts, a les 05:00 UTC
Pronòstic vàlid del 15 a les 06 UTC al 16 a les 06 UTC
Vent 6 kt del Est
Visibilitat 10 km o més
Núvols disperses a una alçada de 1600 ft
Escasses núvols a una alçada de 20000 ft

TAF: VLVT 150500Z 1506/1606 09006KT 9999 SCT016 FEW200

Observacions i pronòstics meteorològics de més de 4000 aeroports (METAR i TAF).

Les estacions disponibles són els punts grocs i vermells al mapa.

Posi el ratolí al punt desitjat per veure el nom de l'estació.

Feu clic per veure les observacions i els pronòstics meteorològics.

Per canviar el mapa: feu clic els botons verds amb una creu de color negre per apropar; al botó verd amb un guió per allunyar la imatge; o en les fletxes verdes per a mapes adjacents.


METAR-TAF: